createdAt,value
2022-10-04T05:58:06.217Z,2.72
2022-10-04T06:01:07.847Z,3.17
2022-10-04T06:03:59.495Z,3.15
2022-10-04T06:06:57.654Z,2.97
2022-10-04T06:09:31.067Z,4.30
2022-10-04T06:12:04.625Z,3.10
2022-10-04T06:14:38.203Z,2.90
2022-10-04T06:17:38.466Z,3.13
2022-10-04T06:20:36.057Z,2.33
2022-10-04T06:23:12.428Z,2.47
2022-10-04T06:25:52.003Z,2.42
2022-10-04T06:28:29.771Z,2.80
2022-10-04T06:31:12.386Z,2.97
2022-10-04T06:34:07.174Z,2.55
2022-10-04T06:36:43.764Z,2.58
2022-10-04T06:39:17.111Z,2.80
2022-10-04T06:42:08.731Z,3.05
2022-10-04T06:44:53.112Z,2.88
2022-10-04T06:47:57.820Z,2.60
2022-10-04T06:50:42.615Z,3.00
2022-10-04T06:53:47.398Z,3.03
2022-10-04T06:56:33.496Z,2.67
2022-10-04T06:59:17.411Z,2.42
2022-10-04T07:01:58.855Z,3.38
2022-10-04T07:05:09.166Z,3.00
2022-10-04T07:07:48.013Z,2.58
2022-10-04T07:10:22.071Z,2.85
2022-10-04T07:13:16.399Z,3.13
2022-10-04T07:16:06.016Z,2.63
2022-10-04T07:18:54.961Z,2.60
2022-10-04T07:21:26.367Z,2.80
2022-10-04T07:23:57.736Z,2.63
2022-10-04T07:26:31.268Z,2.65
2022-10-04T07:29:22.309Z,2.88
2022-10-04T07:32:17.772Z,2.33
2022-10-04T07:34:55.474Z,2.17
2022-10-04T07:37:25.919Z,2.90
2022-10-04T07:40:17.722Z,4.78
2022-10-04T07:42:48.991Z,2.78
2022-10-04T07:45:30.149Z,2.97
2022-10-04T07:48:24.975Z,2.90
2022-10-04T07:51:13.558Z,2.65
2022-10-04T07:54:06.836Z,1.95
2022-10-04T07:56:47.624Z,2.72
2022-10-04T07:59:45.486Z,2.47
2022-10-04T08:02:30.823Z,2.55
2022-10-04T08:05:20.998Z,2.10
2022-10-04T08:08:15.863Z,2.15
2022-10-04T08:10:57.396Z,2.42
2022-10-04T08:13:39.930Z,1.85
2022-10-04T08:16:43.629Z,2.58
2022-10-04T08:19:20.499Z,2.15
2022-10-04T08:22:02.751Z,1.80
2022-10-04T08:24:42.088Z,1.60
2022-10-04T08:27:26.852Z,2.03
2022-10-04T08:30:06.665Z,1.35
2022-10-04T08:32:54.061Z,2.10
2022-10-04T08:35:30.344Z,1.95
2022-10-04T08:38:37.403Z,1.80
2022-10-04T08:41:08.068Z,1.70
2022-10-04T08:43:56.905Z,2.13
2022-10-04T08:47:03.237Z,2.03
2022-10-04T08:49:49.250Z,2.28
2022-10-04T08:52:38.163Z,2.78
2022-10-04T08:55:14.460Z,2.25
2022-10-04T08:57:59.713Z,1.90
2022-10-04T09:00:48.991Z,2.15
2022-10-04T09:03:35.632Z,2.30
2022-10-04T09:06:20.907Z,2.05
2022-10-04T09:09:13.112Z,2.40
2022-10-04T09:12:12.135Z,1.98
2022-10-04T09:15:13.675Z,2.75
2022-10-04T09:18:05.687Z,2.20
2022-10-04T09:20:47.399Z,2.33
2022-10-04T09:23:23.777Z,1.92
2022-10-04T09:26:01.638Z,1.90
2022-10-04T09:28:49.175Z,2.33
2022-10-04T09:34:05.949Z,1.58
2022-10-04T09:36:52.687Z,1.73
2022-10-04T09:39:46.249Z,2.00
2022-10-04T09:42:55.998Z,2.08
2022-10-04T09:46:00.037Z,1.90
2022-10-04T09:48:53.874Z,2.28
2022-10-04T09:51:42.797Z,1.83
2022-10-04T09:54:30.351Z,2.05
2022-10-04T09:59:53.279Z,1.67
2022-10-04T10:02:48.834Z,2.20
2022-10-04T10:05:37.503Z,2.10
2022-10-04T10:08:27.977Z,2.13
2022-10-04T10:11:17.377Z,1.83
2022-10-04T10:14:09.632Z,1.90
2022-10-04T10:17:01.260Z,2.22
2022-10-04T10:19:40.663Z,1.80
2022-10-04T10:22:32.998Z,2.17
2022-10-04T10:25:15.294Z,1.80
2022-10-04T10:27:59.867Z,2.00
2022-10-04T10:30:45.528Z,1.80
2022-10-04T10:33:57.810Z,1.73
2022-10-04T10:36:25.267Z,2.17
2022-10-04T10:39:08.568Z,1.85
2022-10-04T10:42:03.686Z,2.08
2022-10-04T10:45:23.987Z,1.42
2022-10-04T10:48:14.387Z,1.15
2022-10-04T10:51:23.587Z,1.55
2022-10-04T10:54:35.503Z,0.98
2022-10-04T10:57:10.637Z,1.00
2022-10-04T11:00:21.450Z,0.88
2022-10-04T11:03:14.289Z,0.60
2022-10-04T11:05:51.964Z,0.50
2022-10-04T11:08:31.224Z,0.57
2022-10-04T11:11:16.861Z,0.80
2022-10-04T11:13:59.237Z,0.68
2022-10-04T11:16:26.749Z,1.00
2022-10-04T11:19:10.991Z,0.90
2022-10-04T11:21:53.733Z,0.60
2022-10-04T11:24:55.411Z,0.60
2022-10-04T11:27:35.463Z,0.77
2022-10-04T11:30:30.783Z,0.93
2022-10-04T11:33:03.895Z,0.80
2022-10-04T11:35:32.359Z,0.82
2022-10-04T11:38:41.179Z,0.82
2022-10-04T11:41:20.617Z,0.80
2022-10-04T11:44:16.017Z,1.15
2022-10-04T11:47:07.945Z,1.27
2022-10-04T11:49:56.749Z,0.70
2022-10-04T11:52:50.607Z,0.90
2022-10-04T11:55:42.269Z,0.70
2022-10-04T11:58:34.393Z,1.00
2022-10-04T12:01:01.918Z,0.70
2022-10-04T12:03:54.081Z,0.90
2022-10-04T12:06:43.188Z,1.00
2022-10-04T12:09:20.902Z,1.35
2022-10-04T12:12:31.474Z,0.70
2022-10-04T12:15:10.788Z,1.27
2022-10-04T12:17:59.913Z,1.10
2022-10-04T12:21:16.656Z,0.90
2022-10-04T12:24:07.075Z,0.70
2022-10-04T12:27:24.839Z,0.93
2022-10-04T12:30:36.932Z,1.00
2022-10-04T12:33:14.388Z,1.10
2022-10-04T12:36:00.415Z,0.80
2022-10-04T12:38:54.866Z,0.80
2022-10-04T12:41:29.528Z,1.13
2022-10-04T12:44:01.193Z,0.85
2022-10-04T12:46:45.436Z,0.90
2022-10-04T12:49:39.170Z,1.75
2022-10-04T12:52:06.621Z,1.00
2022-10-04T12:54:44.020Z,0.95
2022-10-04T12:57:58.503Z,0.68
2022-10-04T13:00:35.014Z,1.10
2022-10-04T13:03:22.376Z,0.90
2022-10-04T13:06:10.532Z,1.10
2022-10-04T13:09:02.918Z,0.93
2022-10-04T13:12:00.702Z,0.80
2022-10-04T13:14:46.456Z,0.68
2022-10-04T13:17:36.126Z,0.60
2022-10-04T13:20:45.609Z,0.98
2022-10-04T13:23:25.796Z,0.82
2022-10-04T13:26:07.488Z,0.90
2022-10-04T13:29:07.066Z,1.05
2022-10-04T13:31:40.661Z,0.95
2022-10-04T13:34:20.459Z,1.02
2022-10-04T13:37:10.285Z,1.05
2022-10-04T13:40:15.381Z,1.00
2022-10-04T13:42:52.110Z,1.20
2022-10-04T13:45:25.677Z,1.40
2022-10-04T13:48:18.147Z,1.42
2022-10-04T13:50:57.644Z,1.73
2022-10-04T13:54:05.843Z,1.45
2022-10-04T13:57:12.973Z,1.67
2022-10-04T14:00:02.698Z,1.58
2022-10-04T14:02:41.862Z,1.15
2022-10-04T14:05:19.406Z,1.00
2022-10-04T14:08:29.733Z,1.05
2022-10-04T14:11:00.529Z,0.90
2022-10-04T14:13:55.844Z,0.80
2022-10-04T14:16:38.833Z,0.75
2022-10-04T14:19:19.340Z,1.33
2022-10-04T14:22:23.775Z,1.38
2022-10-04T14:25:10.889Z,1.20
2022-10-04T14:27:51.161Z,1.27
2022-10-04T14:30:40.954Z,1.23
2022-10-04T14:33:33.854Z,1.10
2022-10-04T14:36:05.836Z,1.33
2022-10-04T14:38:47.736Z,1.10
2022-10-04T14:41:35.968Z,1.50
2022-10-04T14:44:15.872Z,1.10
2022-10-04T14:47:02.749Z,1.55
2022-10-04T14:49:31.393Z,1.30
2022-10-04T14:52:07.487Z,1.15
2022-10-04T14:54:53.029Z,2.00
2022-10-04T14:57:51.892Z,1.52
2022-10-04T15:00:22.037Z,1.58
2022-10-04T15:03:04.454Z,1.80
2022-10-04T15:05:55.215Z,1.60
2022-10-04T15:08:23.220Z,1.75
2022-10-04T15:11:06.853Z,1.88
2022-10-04T15:13:52.222Z,1.80
2022-10-04T15:16:23.398Z,1.45
2022-10-04T15:19:04.827Z,2.20
2022-10-04T15:22:02.809Z,1.67
2022-10-04T15:24:46.843Z,1.77
2022-10-04T15:27:31.198Z,2.28
2022-10-04T15:30:17.978Z,2.53
2022-10-04T15:33:14.139Z,2.13
2022-10-04T15:36:07.058Z,2.20
2022-10-04T15:38:37.278Z,1.52
2022-10-04T15:41:19.119Z,1.80
2022-10-04T15:43:54.163Z,1.98
2022-10-04T15:46:43.087Z,2.03
2022-10-04T15:49:58.417Z,1.83
2022-10-04T15:52:43.350Z,1.80
2022-10-04T15:55:51.671Z,1.40
2022-10-04T15:58:52.851Z,1.70
2022-10-04T16:01:25.857Z,2.00
2022-10-04T16:04:33.782Z,1.73
2022-10-04T16:07:07.634Z,1.35
2022-10-04T16:10:00.872Z,1.80
2022-10-04T16:13:07.644Z,1.77
2022-10-04T16:15:37.466Z,1.40
2022-10-04T16:18:24.785Z,1.58
2022-10-04T16:21:06.704Z,1.92
2022-10-04T16:23:39.701Z,1.60
2022-10-04T16:26:12.083Z,1.80
2022-10-04T16:28:49.090Z,1.63
2022-10-04T16:31:44.569Z,1.58
2022-10-04T16:34:23.986Z,1.30
2022-10-04T16:37:03.030Z,1.70
2022-10-04T16:40:04.181Z,1.58
2022-10-04T16:43:04.728Z,1.95
2022-10-04T16:45:41.802Z,1.70
2022-10-04T16:48:12.821Z,1.55
2022-10-04T16:50:52.940Z,2.30
2022-10-04T16:53:39.299Z,2.03
2022-10-04T16:57:00.826Z,2.08
2022-10-04T16:59:42.580Z,2.15
2022-10-04T17:02:37.736Z,1.80
2022-10-04T17:05:33.891Z,1.80
2022-10-04T17:08:23.202Z,2.85
2022-10-04T17:11:07.567Z,2.40
2022-10-04T17:13:56.603Z,2.60
2022-10-04T17:16:57.661Z,2.40
2022-10-04T17:19:43.322Z,1.90
2022-10-04T17:22:21.161Z,2.20
2022-10-04T17:25:18.206Z,3.15
2022-10-04T17:27:53.770Z,2.03
2022-10-04T17:30:24.962Z,2.00
2022-10-04T17:33:17.843Z,1.88
2022-10-04T17:36:34.007Z,1.63
2022-10-04T17:39:34.219Z,1.83
2022-10-04T17:42:27.173Z,1.83
2022-10-04T17:45:26.363Z,1.73
2022-10-04T17:48:37.129Z,1.50
2022-10-04T17:51:41.417Z,1.33
2022-10-04T17:54:35.238Z,1.73
2022-10-04T17:57:03.853Z,1.35
2022-10-04T17:59:48.714Z,1.30
2022-10-04T18:02:28.895Z,1.70
2022-10-04T18:05:09.035Z,1.95
2022-10-04T18:07:51.473Z,1.95
2022-10-04T18:10:40.316Z,2.58
2022-10-04T18:13:39.323Z,2.15
2022-10-04T18:16:22.238Z,1.73
2022-10-04T18:18:51.682Z,1.77
2022-10-04T18:21:22.812Z,1.77
2022-10-04T18:23:58.784Z,1.80
2022-10-04T18:26:30.804Z,2.17
2022-10-04T18:29:02.917Z,1.80
2022-10-04T18:31:32.461Z,2.03
2022-10-04T18:34:16.291Z,1.60
2022-10-04T18:36:53.053Z,2.13
2022-10-04T18:39:23.500Z,1.80
2022-10-04T18:42:16.332Z,2.13
2022-10-04T18:44:59.836Z,2.08
2022-10-04T18:47:36.000Z,2.08
2022-10-04T18:50:23.619Z,2.38
2022-10-04T18:53:03.740Z,2.10
2022-10-04T18:55:56.000Z,2.03
2022-10-04T18:59:08.748Z,2.35
2022-10-04T19:02:01.307Z,1.88
2022-10-04T19:04:57.069Z,2.13
2022-10-04T19:07:41.949Z,1.77
2022-10-04T19:10:10.280Z,1.90
2022-10-04T19:12:44.976Z,2.38
2022-10-04T19:15:37.979Z,1.92
2022-10-04T19:18:25.905Z,1.50
2022-10-04T19:23:51.282Z,1.52
2022-10-04T19:26:51.211Z,1.80
2022-10-04T19:29:28.387Z,1.83
2022-10-04T19:32:05.829Z,1.60
2022-10-04T19:35:02.073Z,1.35
2022-10-04T19:37:51.036Z,2.00
2022-10-04T19:40:25.244Z,1.83
2022-10-04T19:43:05.527Z,1.98
2022-10-04T19:45:36.683Z,2.10
2022-10-04T19:48:26.353Z,2.40
2022-10-04T19:51:22.201Z,1.95
2022-10-04T19:54:01.465Z,2.17
2022-10-04T19:56:33.269Z,2.08
2022-10-04T19:59:10.955Z,2.47
2022-10-04T20:01:40.860Z,2.22
2022-10-04T20:04:36.029Z,2.50
2022-10-04T20:07:19.737Z,2.38
2022-10-04T20:09:55.136Z,2.33
2022-10-04T20:13:05.589Z,2.17
2022-10-04T20:15:35.528Z,1.98
2022-10-04T20:18:33.223Z,2.15
2022-10-04T20:21:02.392Z,2.15
2022-10-04T20:23:42.380Z,2.22
2022-10-04T20:26:12.509Z,1.80
2022-10-04T20:28:42.972Z,2.20
2022-10-04T20:31:27.066Z,2.20
2022-10-04T20:33:55.329Z,2.13
2022-10-04T20:36:32.555Z,2.00
2022-10-04T20:39:05.667Z,1.85
2022-10-04T20:41:52.364Z,1.67
2022-10-04T20:44:43.821Z,1.70
2022-10-04T20:47:31.865Z,1.38
2022-10-04T20:50:02.905Z,1.55
2022-10-04T20:52:33.909Z,1.23
2022-10-04T20:55:02.331Z,1.20
2022-10-04T20:57:31.367Z,1.30
2022-10-04T21:00:01.821Z,1.58
2022-10-04T21:02:31.073Z,1.25
2022-10-04T21:05:34.771Z,1.77
2022-10-04T21:08:35.892Z,1.50
2022-10-04T21:11:07.734Z,2.20
2022-10-04T21:13:57.328Z,1.75
2022-10-04T21:16:47.511Z,1.58
2022-10-04T21:19:33.911Z,2.50
2022-10-04T21:22:17.244Z,1.60
2022-10-04T21:24:51.114Z,1.50
2022-10-04T21:27:39.369Z,2.08
2022-10-04T21:30:18.537Z,1.48
2022-10-04T21:32:46.760Z,1.70
2022-10-04T21:35:14.589Z,1.50
2022-10-04T21:37:42.653Z,1.60
2022-10-04T21:40:10.863Z,1.48
2022-10-04T21:42:38.932Z,1.50
2022-10-04T21:45:07.424Z,1.67
2022-10-04T21:47:35.282Z,1.77
2022-10-04T21:50:03.045Z,1.40
2022-10-04T21:52:32.941Z,1.45
2022-10-04T21:55:00.384Z,1.73
2022-10-04T21:57:35.417Z,1.60
2022-10-04T22:00:05.369Z,1.30
2022-10-04T22:02:39.727Z,1.50
2022-10-04T22:05:07.500Z,1.42
2022-10-04T22:07:34.990Z,1.80
2022-10-04T22:10:02.418Z,1.60
2022-10-04T22:12:30.777Z,1.63
2022-10-04T22:14:58.286Z,1.50
2022-10-04T22:17:25.766Z,1.60
2022-10-04T22:19:53.493Z,1.60
2022-10-04T22:22:20.980Z,1.70
2022-10-04T22:24:48.547Z,1.75
2022-10-04T22:27:18.481Z,1.60
2022-10-04T22:29:47.070Z,1.42
2022-10-04T22:32:26.333Z,1.40
2022-10-04T22:35:13.167Z,1.60
2022-10-04T22:37:41.126Z,1.70
2022-10-04T22:40:16.226Z,1.85
2022-10-04T22:42:44.705Z,1.80
2022-10-04T22:45:21.602Z,1.88
2022-10-04T22:47:49.314Z,1.60
2022-10-04T22:50:35.394Z,1.80
2022-10-04T22:53:13.800Z,1.90
2022-10-04T22:55:41.659Z,1.73
2022-10-04T22:58:14.556Z,1.60
2022-10-04T23:00:43.806Z,1.77
2022-10-04T23:03:31.677Z,1.70
2022-10-04T23:06:00.509Z,1.70
2022-10-04T23:08:28.773Z,1.80
2022-10-04T23:11:00.809Z,1.90
2022-10-04T23:13:28.407Z,2.00
2022-10-04T23:16:00.503Z,1.80
2022-10-04T23:18:30.005Z,2.10
2022-10-04T23:21:01.254Z,1.75
2022-10-04T23:23:31.042Z,1.95
2022-10-04T23:25:58.535Z,1.80
2022-10-04T23:28:26.002Z,1.73
2022-10-04T23:31:05.047Z,1.70
2022-10-04T23:33:32.647Z,1.67
2022-10-04T23:36:00.142Z,1.90
2022-10-04T23:38:29.402Z,1.88
2022-10-04T23:40:56.914Z,1.95
2022-10-04T23:43:25.893Z,2.30
2022-10-04T23:45:57.540Z,2.25
2022-10-04T23:48:27.557Z,1.83
2022-10-04T23:50:57.593Z,1.80
2022-10-04T23:53:28.402Z,1.88
2022-10-04T23:55:58.088Z,1.58
2022-10-04T23:58:44.359Z,1.75
